LEALLFKC

Guest
Details From LEAL - Alicante
To LFKC - St Catherine
Flight Number -
Tags Generated
Created
Modified
Stats Distance 499 nm / 923 km
Max Altitude 0 ft / 0 m
Waypoints 4
Social Downloads 4
Likes 0
Share VATSIM

Download

Looking for another format? Having issues loading an existing format? Contact us
Advertisement - Login to hide

Notes

Generated

Route

LEAL SARGO OMEDA LFKC

ID Type Via Altitude Latitude Longitude Leg Dist Tot Dist Heading (true) Name
O LEAL APT - 0 ft / 0 m 38.28452˚ -0.57500˚ - 0 nm - -
SARGO FIX - 0 ft / 0 m 40.50000˚ 3.99231˚ 250 nm 250 nm 56° / 59° -
OMEDA FIX - 0 ft / 0 m 42.32889˚ 8.36194˚ 225 nm 475 nm 59° / 62° -
O LFKC APT - 0 ft / 0 m 42.54117˚ 8.79283˚ 22 nm 498 nm 56° / 56° -

Altitude Profile

Advertisement - Login to hide

Weather


0- 5 10 15 20 25 30 35+ Temperature / ° C

Clouds and Precipitation
Forecast for 2017-12-14 06:00 UTC. Updated 2 hours ago

Ground ~20,000 ft ~40,000 ft Winds

LEAL

Details ICAO LEAL (ALC)
Name Alicante
Region Spain
Timezone Europe/Madrid (UTC+1.0)
Stats Elevation 141 ft / 43 m (AMSL)
Location 38.282169° -0.558157°
Runways 1
Magnetic Variation 0.183° E

METAR

LEAL 140300Z 24008KT 200V280 CAVOK 13/02 Q1022 NOSIG

Decode

TAF

TAF TAF LEAL 132300Z 1400/1424 28014KT 9999 FEW030 TX20/1413Z TN08/1406Z TEMPO 1402/1416 29017G28KT BECMG 1420/1422 25006KT

Decode

Departure Runways

ID Width Length Bearing (true) Bearing (mag) Surface Threshold Offset Overrun Length
10 148 ft / 45 m 9,799 ft / 2,987 m 100.07° 99.89° Asphalt 0 ft / 0 m 164 ft / 50 m
28 148 ft / 45 m 9,799 ft / 2,987 m 280.09° 279.91° Asphalt 0 ft / 0 m 197 ft / 60 m

LFKC

Details ICAO LFKC (CLY)
Name St Catherine
Region France
Timezone Europe/Paris (UTC+1.0)
Stats Elevation 208 ft / 63 m (AMSL)
Location 42.530762° 8.792925°
Runways 1
Magnetic Variation 2.342° E

METAR

LFKC 140300Z AUTO 20014KT 9999 -DZ BKN035 BKN041 BKN052 13/08 Q1014 TEMPO 20020G40KT 4000 RA BKN014 OVC040

Decode

TAF

TAF AMD LFKC 140247Z 1403/1503 20015G30KT 9999 SCT035 BKN050 TEMPO 1403/1409 4000 RA BKN014 OVC040 TEMPO 1403/1418 20020G40KT TEMPO 1500/1503 20020G40KT TX16/1413Z TN11/1404Z

Decode

Destination Runways

ID Width Length Bearing (true) Bearing (mag) Surface Threshold Offset Overrun Length
18 131 ft / 40 m 7,596 ft / 2,315 m 179.60° 177.26° Concrete 0 ft / 0 m 0 ft / 0 m
36 131 ft / 40 m 7,596 ft / 2,315 m 359.60° 357.26° Concrete 656 ft / 200 m 0 ft / 0 m

Approach Navaids

Runway Type Ident Frequency Range Bearing (true) Bearing (mag) Slope Elevation
18 Localiser CLI 109.50 MHz 18 nm / 33 km 179.62° 177.27° - 230 ft / 70 m (AMSL)
18 DME CLI 109.50 MHz 18 nm / 33 km - - - 230 ft / 70 m (AMSL)